This is the latest recevied weather packets stored in our database for station/object IW2NIA-3. If no packets are shown the sender has not sent any weather packets the latest 10 day(s).
| Time | Temp. | Humidity | Pressure | Rain* | Wind** | Luminosity | Snow |
|---|---|---|---|---|---|---|---|
| 1787745811 | 27.22° C | 69% | 1016.4 hPa | 0 mm | - | - | - |
| 1787744924 | 26.11° C | 73% | 1016.5 hPa | 0 mm | - | - | - |
| 1787744023 | 26.67° C | 72% | 1016.9 hPa | 0 mm | - | - | - |
| 1787743119 | 26.67° C | 73% | 1017.1 hPa | 0 mm | - | - | - |
| 1787742219 | 26.11° C | 73% | 1017.1 hPa | 0 mm | - | - | - |
| 1787741310 | 26.67° C | 72% | 1017.1 hPa | 0 mm | - | - | - |
| 1787740426 | 27.22° C | 71% | 1017.1 hPa | 0 mm | - | - | - |
| 1787739507 | 26.67° C | 73% | 1017.3 hPa | 0 mm | - | - | - |
| 1787738609 | 26.11° C | 74% | 1017.2 hPa | 0 mm | - | - | - |
| 1787737725 | 26.11° C | 74% | 1017.2 hPa | 0 mm | - | - | - |
| 1787736820 | 25.56° C | 77% | 1017.3 hPa | 0 mm | - | - | - |
| 1787735919 | 25° C | 78% | 1017.2 hPa | 0 mm | - | - | - |
| 1787735012 | 25° C | 77% | 1017.2 hPa | 0 mm | - | - | - |
| 1787734128 | 24.44° C | 78% | 1017 hPa | 0 mm | - | - | - |
| 1787733219 | 24.44° C | 78% | 1017 hPa | 0 mm | - | - | - |
| 1787732317 | 23.89° C | 79% | 1016.9 hPa | 0 mm | - | - | - |
| 1787731411 | 23.89° C | 79% | 1017 hPa | 0 mm | - | - | - |
| 1787730528 | 23.89° C | 80% | 1017.1 hPa | 0 mm | - | - | - |
| 1787729610 | 23.33° C | 81% | 1016.9 hPa | 0 mm | - | - | - |
| 1787728720 | 23.33° C | 84% | 1016.7 hPa | 0 mm | - | - | - |
| 1787727817 | 22.78° C | 84% | 1016.6 hPa | 0 mm | - | - | - |
| 1787726916 | 22.22° C | 85% | 1016.5 hPa | 0 mm | - | - | - |
| 1787726012 | 22.22° C | 86% | 1016.5 hPa | 0 mm | - | - | - |
| 1787725104 | 21.67° C | 87% | 1016.5 hPa | 0 mm | - | - | - |
| 1787724223 | 21.11° C | 88% | 1016.4 hPa | 0 mm | - | - | - |
* Rain latest hour (hover to see other rain measurements)
** Current wind speed in m/s (hover to see current wind gust speed)